Time;durP1;ratioP1;P1;durP2;ratioP2;P2;SDS_P1;SDS_P2;PMS_P1;PMS_P2;Temp;Humidity;BMP_temperature;BMP_pressure;BME280_temperature;BME280_humidity;BME280_pressure;Samples;Min_cycle;Max_cycle;Signal;HPM_P1;HPM_P2
2023/03/11 00:02:22;;;;;;;6.15;2.22;;;2.70;1.00;;;;;;5013502;28;20269;-83
2023/03/11 00:04:48;;;;;;;9.87;2.63;;;2.70;1.00;;;;;;5045238;28;20186;-82
2023/03/11 00:07:13;;;;;;;7.43;2.83;;;2.70;1.00;;;;;;5023757;28;20195;-82
2023/03/11 00:09:39;;;;;;;19.90;3.03;;;2.70;1.00;;;;;;5026992;28;20190;-82
2023/03/11 00:12:05;;;;;;;12.17;3.63;;;2.70;99.90;;;;;;5022276;28;20309;-82
2023/03/11 00:14:30;;;;;;;12.90;2.90;;;2.60;99.90;;;;;;5035065;28;20198;-83
2023/03/11 00:16:56;;;;;;;12.23;2.70;;;2.60;1.00;;;;;;5036057;28;20441;-84
2023/03/11 00:19:24;;;;;;;4.13;2.10;;;2.70;1.00;;;;;;5032621;28;20190;-83
2023/03/11 00:21:49;;;;;;;8.02;2.50;;;2.70;99.90;;;;;;5032317;28;20221;-83
2023/03/11 00:24:15;;;;;;;5.43;1.80;;;2.70;99.90;;;;;;5026650;28;20178;-83
2023/03/11 00:26:43;;;;;;;10.70;2.37;;;2.70;99.90;;;;;;5021312;28;20190;-84
2023/03/11 00:29:11;;;;;;;7.20;1.90;;;2.70;99.90;;;;;;5031145;28;20352;-84
2023/03/11 00:31:41;;;;;;;6.88;2.00;;;2.70;99.90;;;;;;5010199;28;20237;-83
2023/03/11 00:34:07;;;;;;;4.85;3.10;;;2.70;99.90;;;;;;5030310;28;20181;-84
2023/03/11 00:36:32;;;;;;;9.17;2.40;;;2.70;99.90;;;;;;5013530;28;20707;-84
2023/03/11 00:39:10;;;;;;;2.17;1.90;;;2.70;99.90;;;;;;5011756;28;20193;-83
2023/03/11 00:41:39;;;;;;;5.50;2.20;;;2.70;99.90;;;;;;5034020;28;20578;-84
2023/03/11 00:44:07;;;;;;;9.73;2.20;;;2.70;99.90;;;;;;5029913;28;20335;-84
2023/03/11 00:46:32;;;;;;;10.02;2.80;;;2.70;99.90;;;;;;5025439;28;20189;-83
2023/03/11 00:49:02;;;;;;;8.77;2.40;;;2.70;99.90;;;;;;5020605;28;20187;-83
2023/03/11 00:51:30;;;;;;;6.07;2.42;;;2.70;99.90;;;;;;5027687;28;20214;-83
2023/03/11 00:53:56;;;;;;;5.13;2.75;;;2.70;99.90;;;;;;5032366;28;20193;-84
2023/03/11 00:56:21;;;;;;;6.97;2.03;;;2.70;99.90;;;;;;5015798;28;20190;-84
2023/03/11 00:58:47;;;;;;;14.90;3.30;;;2.80;99.90;;;;;;5025087;28;20198;-84
2023/03/11 01:01:19;;;;;;;4.93;1.90;;;2.70;99.90;;;;;;5018068;28;20241;-82
2023/03/11 01:03:45;;;;;;;12.95;2.42;;;2.70;99.90;;;;;;5006900;28;20214;-83
2023/03/11 01:06:13;;;;;;;4.70;2.07;;;2.70;99.90;;;;;;5023806;28;20182;-83
2023/03/11 01:08:43;;;;;;;9.98;2.85;;;2.70;99.90;;;;;;5027688;28;20204;-83
2023/03/11 01:11:09;;;;;;;11.05;2.80;;;2.60;99.90;;;;;;5020543;28;20699;-83
2023/03/11 01:13:35;;;;;;;11.20;2.00;;;2.60;99.90;;;;;;5010956;28;20228;-83
2023/03/11 01:16:11;;;;;;;6.07;2.10;;;2.50;96.50;;;;;;5028501;28;20189;-83
2023/03/11 01:18:37;;;;;;;4.00;1.95;;;2.40;98.80;;;;;;5025567;28;20193;-83
2023/03/11 01:21:03;;;;;;;7.07;1.80;;;2.30;95.10;;;;;;5027837;28;20205;-84
2023/03/11 01:23:31;;;;;;;8.07;2.90;;;2.30;68.20;;;;;;5002221;28;20297;-83
2023/03/11 01:26:04;;;;;;;6.72;2.10;;;2.20;75.00;;;;;;5032075;28;20445;-83
2023/03/11 01:28:32;;;;;;;6.55;1.90;;;2.20;99.90;;;;;;5027710;28;20193;-83
2023/03/11 01:31:05;;;;;;;7.13;2.30;;;2.10;71.70;;;;;;5026538;28;20214;-83
2023/03/11 01:33:45;;;;;;;;;;;;;;;;;;;;;
2023/03/11 01:36:11;;;;;;;4.43;1.75;;;2.00;98.50;;;;;;5025670;28;20186;-83
2023/03/11 01:38:44;;;;;;;8.47;2.17;;;2.00;90.40;;;;;;5026770;28;20242;-83
2023/03/11 01:41:11;;;;;;;5.25;3.25;;;1.90;95.10;;;;;;5028089;28;20206;-83
2023/03/11 01:43:42;;;;;;;10.98;2.13;;;1.90;99.20;;;;;;5026534;28;20869;-83
2023/03/11 01:46:10;;;;;;;7.88;1.77;;;1.90;99.90;;;;;;5031334;28;20239;-83
2023/03/11 01:48:38;;;;;;;7.55;2.35;;;1.90;99.90;;;;;;5015766;28;20193;-83
2023/03/11 01:51:07;;;;;;;10.50;1.83;;;2.00;99.70;;;;;;5028157;28;20222;-83
2023/03/11 01:53:33;;;;;;;8.40;2.13;;;2.00;53.10;;;;;;5026842;28;20245;-83
2023/03/11 01:56:02;;;;;;;4.03;1.40;;;2.00;1.00;;;;;;5029962;28;20217;-83
2023/03/11 01:58:32;;;;;;;5.85;2.33;;;2.00;1.00;;;;;;5018293;28;20195;-84
2023/03/11 02:01:00;;;;;;;6.05;1.75;;;1.90;1.00;;;;;;5029582;28;20214;-83
2023/03/11 02:03:35;;;;;;;6.97;2.25;;;1.90;1.00;;;;;;5010762;28;20209;-83
2023/03/11 02:06:06;;;;;;;6.35;2.45;;;1.90;1.00;;;;;;5011644;28;20552;-83
2023/03/11 02:08:35;;;;;;;7.70;3.35;;;1.80;1.00;;;;;;5029131;28;20178;-83
2023/03/11 02:11:04;;;;;;;4.18;1.88;;;1.80;1.00;;;;;;5015143;28;20695;-83
2023/03/11 02:13:35;;;;;;;5.13;1.63;;;1.80;1.00;;;;;;5027343;28;20284;-83
2023/03/11 02:16:02;;;;;;;9.45;2.20;;;1.80;1.00;;;;;;5004405;28;20232;-83
2023/03/11 02:18:27;;;;;;;7.15;2.22;;;1.70;1.00;;;;;;5030836;28;20186;-83
2023/03/11 02:21:30;;;;;;;5.00;1.83;;;1.70;1.00;;;;;;5028580;28;20237;-83
2023/03/11 02:24:04;;;;;;;6.10;2.00;;;1.70;1.00;;;;;;5012266;28;20280;-83
2023/03/11 02:26:42;;;;;;;7.07;2.40;;;1.60;1.00;;;;;;5022672;28;20544;-82
2023/03/11 02:29:10;;;;;;;4.68;1.60;;;1.60;99.90;;;;;;5011324;28;20193;-83
2023/03/11 02:31:40;;;;;;;5.28;1.63;;;1.60;99.90;;;;;;5027985;28;20621;-83
2023/03/11 02:34:15;;;;;;;30.35;3.25;;;1.60;99.90;;;;;;5025064;28;20265;-83
2023/03/11 02:36:41;;;;;;;7.57;3.90;;;1.60;99.90;;;;;;5028753;28;20194;-83
2023/03/11 02:39:09;;;;;;;6.88;2.28;;;1.60;99.90;;;;;;5027670;28;20270;-83
2023/03/11 02:41:40;;;;;;;14.27;2.53;;;1.60;99.90;;;;;;5016286;28;20217;-83
2023/03/11 02:44:10;;;;;;;3.50;1.92;;;1.50;99.90;;;;;;5011150;28;20201;-83
2023/03/11 02:46:46;;;;;;;9.55;4.43;;;1.60;99.90;;;;;;5030939;28;20186;-83
2023/03/11 02:49:13;;;;;;;10.07;2.55;;;1.60;99.90;;;;;;5006716;28;20196;-83
2023/03/11 02:51:39;;;;;;;9.77;1.80;;;1.60;99.90;;;;;;5026798;28;20266;-84
2023/03/11 02:54:04;;;;;;;15.93;3.13;;;1.60;99.90;;;;;;5025231;28;20610;-83
2023/03/11 02:56:30;;;;;;;7.10;1.90;;;1.60;99.90;;;;;;5027827;28;20189;-83
2023/03/11 02:58:56;;;;;;;7.03;2.00;;;1.60;99.90;;;;;;5029407;28;20194;-83
2023/03/11 03:01:27;;;;;;;4.43;1.70;;;1.50;11.00;;;;;;5027380;28;20841;-84
2023/03/11 03:04:07;;;;;;;4.90;1.83;;;1.60;1.00;;;;;;5023729;28;20209;-83
2023/03/11 03:06:32;;;;;;;6.40;2.40;;;1.50;1.00;;;;;;5035704;28;20188;-83
2023/03/11 03:08:58;;;;;;;4.20;1.93;;;1.50;1.00;;;;;;5012587;28;20546;-82
2023/03/11 03:11:24;;;;;;;3.03;2.10;;;1.50;1.00;;;;;;5031962;28;20209;-83
2023/03/11 03:13:49;;;;;;;11.20;2.40;;;1.50;1.00;;;;;;5007859;28;20182;-81
2023/03/11 03:16:15;;;;;;;5.80;1.77;;;1.50;1.00;;;;;;5030274;28;20194;-83
2023/03/11 03:18:40;;;;;;;8.37;2.00;;;1.50;1.00;;;;;;5030298;28;20188;-83
2023/03/11 03:21:08;;;;;;;5.07;1.70;;;1.50;1.00;;;;;;5012164;28;20216;-83
2023/03/11 03:23:36;;;;;;;6.60;1.75;;;1.50;1.00;;;;;;5013332;28;20903;-84
2023/03/11 03:26:03;;;;;;;8.63;2.17;;;1.50;1.00;;;;;;5031229;28;20186;-83
2023/03/11 03:28:30;;;;;;;7.20;1.85;;;1.40;99.90;;;;;;5031699;28;20179;-83
2023/03/11 03:31:06;;;;;;;12.65;2.30;;;1.40;99.90;;;;;;5031088;28;20260;-83
2023/03/11 03:33:37;;;;;;;9.75;2.15;;;1.40;99.90;;;;;;5005890;28;20182;-83
2023/03/11 03:36:10;;;;;;;7.30;2.30;;;1.40;99.90;;;;;;5018378;28;20250;-83
2023/03/11 03:38:38;;;;;;;8.15;2.53;;;1.40;99.90;;;;;;5001912;28;20186;-83
2023/03/11 03:41:07;;;;;;;8.85;2.30;;;1.30;99.90;;;;;;5024239;28;20206;-83
2023/03/11 03:43:32;;;;;;;6.85;2.42;;;1.30;86.90;;;;;;5025245;28;20627;-83
2023/03/11 03:46:00;;;;;;;9.80;2.97;;;1.30;76.00;;;;;;5032975;28;20302;-81
2023/03/11 03:48:26;;;;;;;6.25;2.78;;;1.20;1.00;;;;;;4995161;28;20182;-81
2023/03/11 03:50:52;;;;;;;5.72;1.88;;;1.20;1.00;;;;;;5026035;28;20699;-83
2023/03/11 03:53:18;;;;;;;8.13;2.33;;;1.20;99.90;;;;;;5010259;28;20190;-83
2023/03/11 03:55:46;;;;;;;2.53;2.03;;;1.10;99.90;;;;;;5028256;28;20205;-83
2023/03/11 03:58:11;;;;;;;8.23;3.30;;;1.10;99.90;;;;;;5001648;28;20471;-82
2023/03/11 04:00:38;;;;;;;5.33;2.20;;;1.00;99.90;;;;;;5028071;28;20911;-83
2023/03/11 04:03:04;;;;;;;13.45;2.17;;;1.00;1.00;;;;;;5028966;28;20217;-83
2023/03/11 04:05:32;;;;;;;10.32;2.65;;;1.00;1.00;;;;;;5006764;28;20233;-83
2023/03/11 04:07:59;;;;;;;9.88;2.70;;;0.90;1.00;;;;;;5021413;28;20187;-81
2023/03/11 04:10:27;;;;;;;5.10;2.20;;;0.90;1.00;;;;;;5022558;28;20282;-83
2023/03/11 04:12:57;;;;;;;9.75;2.83;;;0.90;28.10;;;;;;5004665;28;20194;-83
2023/03/11 04:15:25;;;;;;;8.38;2.58;;;0.90;99.90;;;;;;5002428;28;20186;-82
2023/03/11 04:17:50;;;;;;;6.70;2.00;;;0.90;99.90;;;;;;5022472;28;20193;-83
2023/03/11 04:20:16;;;;;;;5.40;3.17;;;0.80;99.90;;;;;;5034317;28;20187;-84
2023/03/11 04:22:41;;;;;;;8.80;2.63;;;0.80;99.90;;;;;;5028088;28;20218;-83
2023/03/11 04:25:07;;;;;;;5.43;2.30;;;0.80;99.90;;;;;;5034439;28;20190;-82
2023/03/11 04:27:33;;;;;;;12.13;2.70;;;0.80;99.90;;;;;;5013627;28;20273;-83
2023/03/11 04:30:00;;;;;;;6.70;2.50;;;0.80;99.90;;;;;;5033188;28;20938;-83
2023/03/11 04:32:28;;;;;;;5.80;2.92;;;0.80;99.90;;;;;;5005276;28;20214;-83
2023/03/11 04:34:54;;;;;;;7.20;2.95;;;0.80;99.90;;;;;;5031678;28;20197;-83
2023/03/11 04:37:19;;;;;;;8.77;2.67;;;0.80;99.90;;;;;;5027620;28;20681;-84
2023/03/11 04:39:52;;;;;;;6.93;2.63;;;0.70;99.90;;;;;;5025169;28;20624;-82
2023/03/11 04:42:18;;;;;;;3.72;2.20;;;0.70;99.90;;;;;;5007605;28;20256;-83
2023/03/11 04:44:43;;;;;;;9.50;3.90;;;0.70;1.00;;;;;;5028970;28;20206;-83
2023/03/11 04:47:19;;;;;;;15.53;3.30;;;0.70;1.00;;;;;;5029852;28;20441;-83
2023/03/11 04:49:44;;;;;;;7.57;3.42;;;0.70;1.00;;;;;;5003501;28;20259;-83
2023/03/11 04:52:10;;;;;;;8.60;3.17;;;0.70;1.00;;;;;;5026825;28;20238;-83
2023/03/11 04:54:35;;;;;;;8.00;2.87;;;0.70;1.00;;;;;;5007206;28;20190;-83
2023/03/11 04:57:01;;;;;;;8.13;2.60;;;0.70;1.00;;;;;;5020359;28;20277;-83
2023/03/11 04:59:26;;;;;;;7.60;3.30;;;0.80;1.00;;;;;;5027091;28;20191;-83
2023/03/11 05:01:52;;;;;;;10.63;2.90;;;0.80;1.00;;;;;;5023013;28;20210;-83
2023/03/11 05:04:20;;;;;;;6.90;3.00;;;0.80;1.00;;;;;;5024615;28;20178;-83
2023/03/11 05:06:45;;;;;;;5.45;2.17;;;0.90;1.00;;;;;;5021528;28;20205;-83
2023/03/11 05:09:11;;;;;;;8.17;2.90;;;0.90;1.00;;;;;;5029903;28;20186;-83
2023/03/11 05:11:36;;;;;;;11.70;3.20;;;1.00;1.00;;;;;;5021434;28;20207;-83
2023/03/11 05:14:04;;;;;;;8.83;4.57;;;1.00;1.00;;;;;;5026634;28;20186;-83
2023/03/11 05:16:30;;;;;;;6.03;2.72;;;1.10;1.00;;;;;;5019393;28;20562;-83
2023/03/11 05:18:55;;;;;;;7.57;3.00;;;1.10;1.00;;;;;;5027538;28;20190;-83
2023/03/11 05:21:23;;;;;;;9.03;3.20;;;1.20;1.00;;;;;;5005384;28;20214;-83
2023/03/11 05:23:48;;;;;;;8.32;3.25;;;1.20;1.00;;;;;;5025987;28;20250;-83
2023/03/11 05:26:14;;;;;;;6.57;2.90;;;1.20;1.00;;;;;;5019406;28;20265;-83
2023/03/11 05:28:40;;;;;;;7.03;3.40;;;1.20;1.00;;;;;;5021106;28;20182;-83
2023/03/11 05:31:14;;;;;;;6.00;3.30;;;1.20;1.00;;;;;;5026590;28;20615;-83
2023/03/11 05:33:42;;;;;;;10.18;3.10;;;1.20;1.00;;;;;;5024261;28;20181;-83
2023/03/11 05:36:09;;;;;;;5.55;3.20;;;1.20;1.00;;;;;;5023670;28;20236;-83
2023/03/11 05:38:38;;;;;;;9.57;3.25;;;1.30;1.00;;;;;;5021035;28;20187;-82
2023/03/11 05:41:05;;;;;;;9.38;3.55;;;1.30;1.00;;;;;;5011468;28;20232;-83
2023/03/11 05:43:32;;;;;;;6.50;2.88;;;1.30;1.00;;;;;;5005605;28;20206;-83
2023/03/11 05:46:00;;;;;;;9.45;3.60;;;1.30;1.00;;;;;;5022450;28;20305;-82
2023/03/11 05:48:26;;;;;;;10.82;2.75;;;1.30;1.00;;;;;;5018098;28;20189;-83
2023/03/11 05:50:51;;;;;;;6.30;3.20;;;1.30;1.00;;;;;;5022698;28;20201;-81
2023/03/11 05:53:20;;;;;;;5.57;3.30;;;1.30;1.00;;;;;;5017572;28;20190;-83
2023/03/11 05:55:58;;;;;;;6.07;3.78;;;1.30;1.00;;;;;;5021353;28;20285;-83
2023/03/11 05:58:25;;;;;;;8.70;3.70;;;1.30;1.00;;;;;;5029627;28;20676;-83
2023/03/11 06:00:51;;;;;;;6.18;3.47;;;1.30;1.00;;;;;;5015123;28;20229;-82
2023/03/11 06:03:19;;;;;;;16.17;4.40;;;1.30;1.00;;;;;;5028213;28;20205;-83
2023/03/11 06:05:46;;;;;;;10.13;4.35;;;1.30;1.00;;;;;;5004103;28;20552;-83
2023/03/11 06:08:15;;;;;;;8.85;3.50;;;1.30;1.00;;;;;;5019211;28;20194;-83
2023/03/11 06:10:41;;;;;;;9.15;4.10;;;1.20;1.00;;;;;;5018057;28;20202;-83
2023/03/11 06:13:07;;;;;;;8.05;3.40;;;1.20;1.00;;;;;;5020755;28;20672;-82
2023/03/11 06:15:34;;;;;;;10.95;3.55;;;1.20;1.00;;;;;;5024285;28;20195;-82
2023/03/11 06:18:02;;;;;;;9.45;3.58;;;1.30;1.00;;;;;;5029146;28;20178;-83
2023/03/11 06:20:28;;;;;;;8.90;4.53;;;1.30;1.00;;;;;;5022825;28;20248;-83
2023/03/11 06:22:56;;;;;;;10.30;3.37;;;1.40;1.00;;;;;;4998505;28;20606;-83
2023/03/11 06:25:24;;;;;;;19.48;4.10;;;1.50;99.90;;;;;;5021564;28;20451;-83
2023/03/11 06:27:54;;;;;;;10.43;3.97;;;1.60;99.90;;;;;;5003327;28;20291;-82
2023/03/11 06:30:22;;;;;;;12.02;4.57;;;1.80;99.90;;;;;;5006104;28;20185;-82
2023/03/11 06:32:50;;;;;;;7.32;3.90;;;1.90;97.40;;;;;;5021018;28;20244;-82
2023/03/11 06:35:25;;;;;;;9.25;4.18;;;2.10;1.00;;;;;;5007537;28;20558;-82
2023/03/11 06:37:51;;;;;;;8.02;4.05;;;2.30;1.00;;;;;;5024532;28;20251;-83
2023/03/11 06:40:17;;;;;;;7.37;3.43;;;2.60;51.00;;;;;;5029956;28;20190;-82
2023/03/11 06:42:46;;;;;;;6.97;3.55;;;2.80;99.90;;;;;;5030371;28;20213;-83
2023/03/11 06:45:14;;;;;;;12.35;4.18;;;3.00;1.00;;;;;;5031135;28;20181;-83
2023/03/11 06:47:42;;;;;;;9.55;4.22;;;3.30;99.90;;;;;;4995864;28;20244;-83
2023/03/11 06:50:08;;;;;;;11.18;3.65;;;3.70;99.90;;;;;;5029444;28;20178;-83
2023/03/11 06:52:34;;;;;;;18.43;3.87;;;4.00;1.00;;;;;;5012402;28;20246;-83
2023/03/11 06:55:02;;;;;;;5.87;3.60;;;4.40;1.00;;;;;;5011103;28;20971;-83
2023/03/11 06:57:29;;;;;;;9.23;4.53;;;5.50;99.90;;;;;;5025002;28;20434;-84
2023/03/11 06:59:55;;;;;;;10.10;4.40;;;6.70;99.90;;;;;;5007842;28;20205;-81
2023/03/11 07:02:24;;;;;;;6.40;3.30;;;9.10;33.10;;;;;;5020914;28;20563;-82
2023/03/11 07:04:49;;;;;;;8.03;5.07;;;11.30;1.00;;;;;;5029126;28;20188;-81
2023/03/11 07:07:15;;;;;;;7.30;3.90;;;12.30;99.90;;;;;;5023862;28;20527;-81
2023/03/11 07:09:41;;;;;;;6.87;4.00;;;13.30;99.90;;;;;;5032405;28;20499;-82
2023/03/11 07:12:07;;;;;;;5.90;3.80;;;14.10;99.90;;;;;;5023521;28;20477;-82
2023/03/11 07:14:33;;;;;;;5.00;4.07;;;16.70;99.90;;;;;;5023725;28;20181;-82
2023/03/11 07:16:58;;;;;;;14.70;3.83;;;18.70;99.90;;;;;;5030077;28;20459;-83
2023/03/11 07:19:24;;;;;;;8.10;4.13;;;19.90;99.90;;;;;;5025633;28;20223;-83
2023/03/11 07:21:50;;;;;;;10.27;4.70;;;20.80;99.90;;;;;;5026219;28;20219;-83
2023/03/11 07:24:15;;;;;;;7.93;3.90;;;22.00;99.90;;;;;;5026378;28;20259;-81
2023/03/11 07:26:43;;;;;;;8.60;4.57;;;23.40;99.90;;;;;;5009869;28;20307;-83
2023/03/11 07:29:09;;;;;;;8.33;4.63;;;25.10;99.90;;;;;;5026045;28;20193;-83
2023/03/11 07:31:35;;;;;;;8.50;5.03;;;26.50;99.90;;;;;;5021657;28;20453;-83
2023/03/11 07:34:04;;;;;;;9.10;4.73;;;27.90;99.90;;;;;;5028516;28;20182;-81
2023/03/11 07:36:30;;;;;;;11.30;4.70;;;29.00;99.90;;;;;;5026529;28;20567;-81
2023/03/11 07:38:58;;;;;;;9.60;4.23;;;29.70;99.90;;;;;;5035473;28;20476;-81
2023/03/11 07:41:24;;;;;;;7.93;3.97;;;30.40;99.90;;;;;;5019297;28;20232;-80
2023/03/11 07:43:54;;;;;;;8.17;4.00;;;30.90;99.90;;;;;;5019972;28;20512;-80
2023/03/11 07:46:21;;;;;;;8.40;4.23;;;31.60;99.90;;;;;;5020557;28;20927;-80
2023/03/11 07:48:48;;;;;;;7.43;4.20;;;32.10;99.90;;;;;;5005862;28;20507;-80
2023/03/11 07:51:15;;;;;;;5.50;4.00;;;32.50;99.90;;;;;;5023332;28;20449;-80
2023/03/11 07:53:41;;;;;;;7.60;3.90;;;32.10;99.90;;;;;;5027420;28;20441;-81
2023/03/11 07:56:09;;;;;;;9.60;4.10;;;32.30;99.90;;;;;;5016927;28;20436;-80
2023/03/11 07:58:35;;;;;;;7.17;4.30;;;32.80;99.90;;;;;;5023241;28;20467;-80
2023/03/11 08:01:06;;;;;;;10.90;4.40;;;33.40;99.90;;;;;;5024770;28;20461;-81
2023/03/11 08:03:32;;;;;;;8.00;3.70;;;33.70;99.90;;;;;;5007147;28;21314;-80
2023/03/11 08:05:58;;;;;;;9.93;3.80;;;33.40;99.90;;;;;;5021515;28;20445;-81
2023/03/11 08:08:24;;;;;;;8.27;4.40;;;32.60;99.90;;;;;;5020948;28;20551;-80
2023/03/11 08:10:49;;;;;;;9.63;3.70;;;32.70;99.90;;;;;;5020927;28;20210;-80
2023/03/11 08:13:16;;;;;;;9.17;3.10;;;33.20;99.90;;;;;;5021709;28;20210;-80
2023/03/11 08:15:41;;;;;;;6.27;3.63;;;33.70;99.90;;;;;;5020881;28;20193;-80
2023/03/11 08:18:07;;;;;;;7.00;3.13;;;33.90;99.90;;;;;;5017772;28;20433;-80
2023/03/11 08:20:32;;;;;;;5.80;3.23;;;33.50;99.90;;;;;;5023478;28;20209;-80
2023/03/11 08:22:58;;;;;;;6.03;3.43;;;33.40;99.90;;;;;;5021509;28;20195;-80
2023/03/11 08:25:24;;;;;;;7.50;3.23;;;33.50;99.90;;;;;;5025339;28;20202;-79
2023/03/11 08:27:49;;;;;;;6.43;3.47;;;33.70;99.90;;;;;;5021019;28;21385;-78
2023/03/11 08:30:17;;;;;;;6.20;3.40;;;33.70;99.90;;;;;;5007113;28;20190;-79
2023/03/11 08:32:42;;;;;;;5.83;3.40;;;33.90;99.90;;;;;;5002178;28;20224;-78
2023/03/11 08:35:09;;;;;;;6.73;3.30;;;34.30;99.90;;;;;;5022875;28;20440;-80
2023/03/11 08:37:34;;;;;;;6.27;3.20;;;34.50;99.90;;;;;;5019213;28;20187;-79
2023/03/11 08:40:00;;;;;;;5.87;2.87;;;34.60;99.90;;;;;;5018078;28;20437;-80
2023/03/11 08:42:25;;;;;;;9.30;3.57;;;34.80;99.90;;;;;;5019472;28;20737;-78
2023/03/11 08:44:51;;;;;;;5.87;3.27;;;35.00;99.90;;;;;;5026583;28;20202;-80
2023/03/11 08:47:16;;;;;;;13.50;3.83;;;35.10;99.90;;;;;;5005037;28;20269;-80
2023/03/11 08:49:44;;;;;;;7.87;3.37;;;35.00;99.90;;;;;;5030271;28;20197;-80
2023/03/11 08:52:10;;;;;;;7.07;2.67;;;35.10;99.90;;;;;;5013287;28;20214;-80
2023/03/11 08:54:35;;;;;;;6.60;3.10;;;35.10;99.90;;;;;;5022613;28;20448;-81
2023/03/11 08:57:03;;;;;;;5.63;2.80;;;35.10;99.90;;;;;;5029490;28;20193;-81
2023/03/11 08:59:29;;;;;;;5.80;2.70;;;35.10;99.90;;;;;;5029249;28;20208;-82
2023/03/11 09:01:57;;;;;;;7.97;2.90;;;35.00;99.90;;;;;;5032680;28;20468;-81
2023/03/11 09:04:23;;;;;;;3.37;1.90;;;34.90;99.90;;;;;;5017920;28;20441;-82
2023/03/11 09:06:49;;;;;;;6.40;2.40;;;34.90;99.90;;;;;;5035138;28;20502;-81
2023/03/11 09:09:16;;;;;;;5.57;1.90;;;35.20;99.90;;;;;;5032123;28;20190;-80
2023/03/11 09:11:46;;;;;;;7.43;2.20;;;35.10;99.90;;;;;;5034743;28;20284;-81
2023/03/11 09:14:13;;;;;;;5.93;2.40;;;34.40;99.90;;;;;;5031820;28;20810;-81
2023/03/11 09:16:38;;;;;;;3.93;1.90;;;34.10;99.90;;;;;;5015230;28;20918;-81
2023/03/11 09:19:06;;;;;;;5.80;2.40;;;33.20;99.90;;;;;;5032916;28;20486;-80
2023/03/11 09:21:35;;;;;;;3.77;2.03;;;32.90;99.90;;;;;;5030892;28;20703;-82
2023/03/11 09:24:03;;;;;;;7.73;2.50;;;33.00;99.90;;;;;;5028451;28;20531;-81
2023/03/11 09:26:29;;;;;;;4.43;2.47;;;33.10;99.90;;;;;;5027381;28;20483;-81
2023/03/11 09:28:55;;;;;;;3.40;2.13;;;33.10;99.90;;;;;;5032992;28;20468;-81
2023/03/11 09:31:21;;;;;;;4.13;2.20;;;32.70;99.90;;;;;;5012366;28;20459;-79
2023/03/11 09:33:48;;;;;;;5.37;2.50;;;32.60;99.90;;;;;;5025338;28;20187;-82
2023/03/11 09:36:16;;;;;;;7.30;2.70;;;32.80;99.90;;;;;;5013675;28;20445;-82
2023/03/11 09:38:43;;;;;;;3.83;1.90;;;33.10;99.90;;;;;;5029120;28;20551;-82
2023/03/11 09:41:33;;;;;;;5.03;1.40;;;33.00;99.90;;;;;;5010125;28;20461;-81
2023/03/11 09:44:13;;;;;;;4.53;1.90;;;33.40;99.90;;;;;;5001330;28;20460;-81
2023/03/11 09:46:55;;;;;;;4.33;1.83;;;33.40;99.90;;;;;;5028916;28;20845;-81
2023/03/11 09:49:25;;;;;;;5.47;1.80;;;33.30;99.90;;;;;;5029199;28;20508;-81
2023/03/11 09:52:05;;;;;;;3.03;1.40;;;32.50;99.90;;;;;;5012041;28;20463;-81
2023/03/11 09:54:41;;;;;;;4.93;1.20;;;31.80;99.90;;;;;;5026130;28;20440;-81
2023/03/11 09:57:11;;;;;;;2.63;0.90;;;29.70;97.30;;;;;;5027445;28;20470;-80
2023/03/11 09:59:43;;;;;;;5.10;1.73;;;27.60;92.90;;;;;;5036237;28;20440;-81
2023/03/11 10:02:15;;;;;;;3.23;1.10;;;26.00;90.00;;;;;;5035956;28;20476;-81
2023/03/11 10:04:43;;;;;;;5.77;1.37;;;25.50;90.20;;;;;;5018541;28;20864;-82
2023/03/11 10:07:16;;;;;;;3.53;0.80;;;24.60;86.60;;;;;;5035369;28;20441;-80
2023/03/11 10:09:56;;;;;;;2.50;0.90;;;24.90;88.90;;;;;;5035714;28;20849;-81
2023/03/11 10:12:27;;;;;;;4.40;1.00;;;25.70;92.40;;;;;;5015489;28;21131;-81
2023/03/11 10:15:23;;;;;;;3.23;1.57;;;24.60;88.00;;;;;;5011153;28;20440;-81
2023/03/11 10:18:08;;;;;;;4.20;1.00;;;23.30;82.20;;;;;;5032903;28;20478;-79
2023/03/11 10:20:52;;;;;;;3.40;1.27;;;22.70;79.60;;;;;;5027332;28;20474;-81
2023/03/11 10:23:47;;;;;;;3.80;1.43;;;23.60;87.70;;;;;;5032883;28;20965;-81
2023/03/11 10:26:31;;;;;;;6.40;1.40;;;22.80;81.80;;;;;;5026330;28;20484;-80
2023/03/11 10:29:14;;;;;;;3.53;1.27;;;21.50;74.60;;;;;;5030991;28;20427;-79
2023/03/11 10:31:53;;;;;;;3.27;1.60;;;20.80;72.30;;;;;;5031734;28;20492;-80
2023/03/11 10:34:32;;;;;;;3.03;1.20;;;20.30;71.20;;;;;;5019004;28;20423;-80
2023/03/11 10:37:22;;;;;;;6.10;1.63;;;20.00;69.70;;;;;;5036169;28;20907;-78
2023/03/11 10:39:48;;;;;;;5.13;1.60;;;19.60;68.90;;;;;;5034368;28;20447;-80
2023/03/11 10:42:24;;;;;;;4.27;1.73;;;19.70;71.60;;;;;;5033729;28;20478;-80
2023/03/11 10:44:49;;;;;;;3.90;1.30;;;20.00;74.90;;;;;;5025790;28;20824;-80
2023/03/11 10:47:21;;;;;;;10.40;1.53;;;20.80;80.80;;;;;;5040606;28;20432;-80
2023/03/11 10:49:47;;;;;;;3.67;1.17;;;21.10;83.00;;;;;;5029375;28;20183;-80
2023/03/11 10:52:13;;;;;;;2.43;1.40;;;20.60;79.60;;;;;;5034372;28;20457;-81
2023/03/11 10:54:44;;;;;;;2.43;1.00;;;19.80;74.50;;;;;;5033717;28;21044;-80
2023/03/11 10:57:32;;;;;;;4.40;1.03;;;19.40;71.70;;;;;;5034099;28;21181;-80
2023/03/11 11:00:00;;;;;;;3.80;1.27;;;18.90;69.30;;;;;;5034042;28;21016;-80
2023/03/11 11:02:31;;;;;;;4.60;1.40;;;18.50;85.10;;;;;;5027929;28;20489;-80
2023/03/11 11:05:28;;;;;;;6.40;1.63;;;18.40;67.60;;;;;;5034957;28;20441;-80
2023/03/11 11:08:03;;;;;;;3.90;1.87;;;18.00;65.00;;;;;;5027482;28;20448;-80
2023/03/11 11:10:29;;;;;;;6.33;1.47;;;17.80;64.70;;;;;;5032365;28;20455;-80
2023/03/11 11:13:02;;;;;;;3.70;1.53;;;17.40;62.70;;;;;;5033740;28;20572;-80
2023/03/11 11:15:33;;;;;;;3.93;1.30;;;17.20;61.60;;;;;;5033308;28;20431;-80
2023/03/11 11:18:01;;;;;;;10.00;1.60;;;16.90;60.70;;;;;;5033078;28;20430;-80
2023/03/11 11:20:28;;;;;;;3.57;1.30;;;16.70;60.30;;;;;;5035027;28;20482;-82
2023/03/11 11:22:59;;;;;;;3.27;1.33;;;16.60;60.60;;;;;;5029215;28;20653;-82
2023/03/11 11:25:27;;;;;;;6.43;1.80;;;16.50;61.30;;;;;;5031953;28;20452;-81
2023/03/11 11:27:59;;;;;;;4.77;1.33;;;16.30;60.90;;;;;;5030567;28;20432;-82
2023/03/11 11:30:26;;;;;;;2.80;1.30;;;16.60;62.60;;;;;;5016031;28;20483;-81
2023/03/11 11:32:52;;;;;;;3.40;1.70;;;16.90;65.40;;;;;;5032427;28;20885;-81
2023/03/11 11:35:20;;;;;;;5.13;1.53;;;17.50;70.50;;;;;;5029375;28;20493;-79
2023/03/11 11:37:51;;;;;;;4.40;1.10;;;18.00;74.90;;;;;;5015758;28;20418;-81
2023/03/11 11:40:23;;;;;;;2.83;1.13;;;17.60;71.80;;;;;;5014156;28;20891;-81
2023/03/11 11:43:02;;;;;;;3.17;1.13;;;16.90;67.30;;;;;;5022073;28;20535;-81
2023/03/11 11:45:47;;;;;;;5.67;1.10;;;17.40;71.60;;;;;;5024703;28;20674;-80
2023/03/11 11:48:25;;;;;;;6.73;1.90;;;17.80;75.70;;;;;;5029129;28;20470;-80
2023/03/11 11:50:54;;;;;;;6.60;1.40;;;18.00;75.50;;;;;;5025428;28;20980;-80
2023/03/11 11:53:41;;;;;;;3.20;1.30;;;17.60;73.50;;;;;;5025565;28;20500;-81
2023/03/11 11:56:07;;;;;;;2.90;1.00;;;17.30;70.80;;;;;;5033526;28;20933;-82
2023/03/11 11:58:33;;;;;;;3.30;1.47;;;17.90;75.20;;;;;;5028379;28;20468;-82
2023/03/11 12:01:34;;;;;;;4.70;1.50;;;18.00;76.50;;;;;;5031856;28;20201;-81
2023/03/11 12:04:10;;;;;;;4.30;1.53;;;17.70;74.00;;;;;;5030621;28;20434;-82
2023/03/11 12:07:06;;;;;;;4.13;1.73;;;16.90;68.90;;;;;;5029691;28;20431;-82
2023/03/11 12:09:54;;;;;;;2.90;1.20;;;16.20;65.10;;;;;;5029377;28;20437;-81
2023/03/11 12:12:35;;;;;;;2.47;1.00;;;15.60;61.40;;;;;;5032139;28;20474;-82
2023/03/11 12:15:19;;;;;;;4.47;1.37;;;15.10;59.40;;;;;;5024373;28;20492;-82
2023/03/11 12:17:46;;;;;;;4.60;1.40;;;14.90;59.30;;;;;;5029922;28;20484;-81
2023/03/11 12:20:26;;;;;;;3.03;1.53;;;14.90;59.90;;;;;;5015774;28;20436;-82
2023/03/11 12:23:13;;;;;;;5.53;1.50;;;15.10;62.30;;;;;;5014233;28;20460;-82
2023/03/11 12:26:15;;;;;;;6.20;1.90;;;15.40;64.90;;;;;;5030478;28;20436;-81
2023/03/11 12:29:03;;;;;;;3.97;1.90;;;15.30;64.80;;;;;;5027835;28;20424;-81
2023/03/11 12:31:37;;;;;;;7.07;1.50;;;15.10;64.60;;;;;;5025708;28;20965;-81
2023/03/11 12:34:06;;;;;;;3.73;1.80;;;15.10;64.40;;;;;;5029880;28;20431;-81
2023/03/11 12:36:39;;;;;;;3.90;1.60;;;15.10;65.00;;;;;;5024746;28;20544;-81
2023/03/11 12:39:18;;;;;;;2.60;1.50;;;15.10;66.50;;;;;;5024258;28;20447;-80
2023/03/11 12:41:44;;;;;;;10.07;1.57;;;15.30;66.70;;;;;;5033896;28;20460;-82
2023/03/11 12:44:27;;;;;;;4.17;1.50;;;16.00;74.30;;;;;;5030820;28;20471;-83
2023/03/11 12:46:53;;;;;;;6.40;1.40;;;17.20;81.50;;;;;;5028002;28;20532;-83
2023/03/11 12:49:29;;;;;;;4.90;1.47;;;18.10;88.10;;;;;;5014821;28;21023;-83
2023/03/11 12:52:12;;;;;;;2.47;1.50;;;18.60;98.80;;;;;;5013825;28;20601;-82
2023/03/11 12:54:42;;;;;;;5.83;1.50;;;19.50;93.20;;;;;;5006034;28;20499;-82
2023/03/11 12:57:17;;;;;;;5.63;1.50;;;20.20;95.20;;;;;;5013351;28;20446;-82
2023/03/11 13:00:06;;;;;;;6.33;1.80;;;20.70;96.20;;;;;;5026927;28;20443;-83
2023/03/11 13:02:40;;;;;;;3.23;1.43;;;20.80;95.80;;;;;;5021892;28;20444;-81
2023/03/11 13:05:22;;;;;;;7.10;1.50;;;20.50;94.80;;;;;;5023728;28;20490;-82
2023/03/11 13:07:50;;;;;;;5.73;2.27;;;20.60;94.40;;;;;;5024954;28;20437;-82
2023/03/11 13:10:17;;;;;;;3.63;1.47;;;20.90;95.50;;;;;;5012756;28;20425;-83